Time;durP1;ratioP1;P1;durP2;ratioP2;P2;SDS_P1;SDS_P2;PMS_P1;PMS_P2;Temp;Humidity;BMP_temperature;BMP_pressure;BME280_temperature;BME280_humidity;BME280_pressure;Samples;Min_cycle;Max_cycle;Signal;HPM_P1;HPM_P2
2023/06/15 00:01:29;;;;;;;4.20;1.40;;;17.40;1.00;;;;;;5014987;28;20422;-82
2023/06/15 00:03:54;;;;;;;3.40;1.20;;;17.40;1.00;;;;;;5014274;28;20415;-81
2023/06/15 00:06:20;;;;;;;2.17;1.23;;;17.40;6.90;;;;;;5014836;28;20229;-80
2023/06/15 00:08:45;;;;;;;2.70;1.30;;;17.30;21.00;;;;;;5015163;28;20173;-82
2023/06/15 00:11:11;;;;;;;4.30;1.93;;;17.30;44.30;;;;;;5013369;28;20264;-81
2023/06/15 00:13:36;;;;;;;2.43;1.30;;;17.30;54.20;;;;;;5012971;28;20179;-81
2023/06/15 00:16:02;;;;;;;3.37;1.67;;;17.20;99.90;;;;;;5014368;28;20168;-80
2023/06/15 00:18:27;;;;;;;5.00;2.00;;;17.20;99.90;;;;;;5014051;28;20214;-80
2023/06/15 00:20:55;;;;;;;2.23;1.20;;;17.10;99.90;;;;;;5014704;28;20169;-80
2023/06/15 00:23:26;;;;;;;2.37;1.43;;;17.10;99.90;;;;;;5013984;28;20176;-84
2023/06/15 00:25:53;;;;;;;6.40;1.70;;;17.10;99.90;;;;;;5013466;28;20561;-83
2023/06/15 00:28:19;;;;;;;1.90;1.03;;;17.10;99.90;;;;;;5014401;28;20814;-80
2023/06/15 00:30:44;;;;;;;6.90;1.60;;;17.10;99.90;;;;;;5002345;28;20937;-82
2023/06/15 00:33:10;;;;;;;5.10;1.40;;;17.10;99.90;;;;;;5013349;28;20420;-82
2023/06/15 00:35:35;;;;;;;2.80;1.10;;;17.00;99.90;;;;;;5008409;28;20727;-81
2023/06/15 00:38:01;;;;;;;2.27;1.53;;;17.00;99.90;;;;;;5018402;28;20225;-83
2023/06/15 00:40:26;;;;;;;2.53;1.43;;;17.00;99.90;;;;;;4994554;28;20199;-80
2023/06/15 00:42:52;;;;;;;3.43;1.67;;;16.90;99.90;;;;;;4994157;28;20256;-79
2023/06/15 00:45:17;;;;;;;2.50;1.53;;;16.90;1.00;;;;;;4994652;28;20213;-81
2023/06/15 00:47:45;;;;;;;2.87;1.40;;;16.90;1.00;;;;;;5004428;28;20602;-81
2023/06/15 00:50:18;;;;;;;2.33;1.47;;;16.90;1.00;;;;;;4993874;28;20179;-81
2023/06/15 00:52:45;;;;;;;4.63;1.57;;;16.80;1.00;;;;;;4994696;28;20431;-80
2023/06/15 00:55:13;;;;;;;4.40;2.07;;;16.80;1.00;;;;;;4994704;28;20431;-80
2023/06/15 00:57:44;;;;;;;2.87;1.00;;;16.70;1.00;;;;;;4994270;28;20403;-80
2023/06/15 01:00:14;;;;;;;2.20;1.30;;;16.70;1.00;;;;;;5009682;28;20417;-80
2023/06/15 01:02:40;;;;;;;3.80;1.50;;;16.70;48.30;;;;;;4993292;28;20425;-79
2023/06/15 01:05:10;;;;;;;4.13;1.73;;;16.70;99.90;;;;;;4994179;28;20551;-79
2023/06/15 01:07:36;;;;;;;2.50;0.90;;;16.70;99.90;;;;;;4995866;28;20505;-79
2023/06/15 01:10:03;;;;;;;3.20;1.63;;;16.60;99.90;;;;;;5029247;28;20429;-79
2023/06/15 01:12:29;;;;;;;3.00;1.50;;;16.60;99.90;;;;;;5013510;28;20447;-80
2023/06/15 01:14:55;;;;;;;3.03;1.67;;;16.60;1.00;;;;;;5013870;28;20472;-81
2023/06/15 01:17:23;;;;;;;2.17;1.20;;;16.50;1.00;;;;;;5013872;28;20791;-81
2023/06/15 01:19:57;;;;;;;4.00;1.33;;;16.50;1.00;;;;;;5013792;28;20216;-80
2023/06/15 01:22:49;;;;;;;3.30;1.60;;;16.50;1.00;;;;;;5013861;28;20422;-80
2023/06/15 01:25:29;;;;;;;1.80;1.23;;;16.40;95.30;;;;;;5013716;28;20544;-82
2023/06/15 01:28:03;;;;;;;3.33;1.70;;;16.40;99.90;;;;;;5013435;28;20406;-81
2023/06/15 01:30:33;;;;;;;4.90;2.10;;;16.30;1.00;;;;;;5013714;28;20440;-82
2023/06/15 01:32:59;;;;;;;3.23;1.30;;;16.30;1.00;;;;;;5013676;28;20423;-84
2023/06/15 01:35:24;;;;;;;5.47;1.80;;;16.30;1.00;;;;;;5013454;28;20410;-82
2023/06/15 01:37:50;;;;;;;2.50;1.60;;;16.30;1.00;;;;;;5012339;28;20476;-82
2023/06/15 01:40:16;;;;;;;2.90;1.80;;;16.20;77.70;;;;;;5028661;28;20174;-81
2023/06/15 01:42:42;;;;;;;3.80;1.60;;;16.20;99.90;;;;;;5013250;28;20190;-81
2023/06/15 01:45:10;;;;;;;2.37;1.27;;;16.20;99.90;;;;;;5013463;28;20859;-81
2023/06/15 01:47:37;;;;;;;3.60;2.03;;;16.10;99.90;;;;;;5013336;28;21006;-84
2023/06/15 01:50:03;;;;;;;3.80;1.47;;;16.10;99.90;;;;;;5013389;28;20423;-81
2023/06/15 01:52:29;;;;;;;2.83;1.43;;;16.00;1.00;;;;;;5013325;28;20416;-80
2023/06/15 01:54:55;;;;;;;5.03;1.80;;;15.90;99.90;;;;;;5013282;28;20408;-82
2023/06/15 01:57:21;;;;;;;3.67;1.90;;;15.90;99.90;;;;;;5012996;28;20182;-80
2023/06/15 01:59:47;;;;;;;3.33;1.43;;;15.90;99.90;;;;;;5013231;28;20171;-80
2023/06/15 02:02:12;;;;;;;3.07;1.23;;;15.90;1.00;;;;;;5011910;28;20427;-81
2023/06/15 02:04:38;;;;;;;3.20;1.27;;;15.90;1.00;;;;;;5013076;28;20591;-81
2023/06/15 02:07:03;;;;;;;2.50;0.80;;;15.80;1.00;;;;;;5012978;28;20232;-81
2023/06/15 02:09:29;;;;;;;2.03;0.93;;;15.80;1.00;;;;;;5028352;28;20187;-81
2023/06/15 02:11:56;;;;;;;2.83;1.30;;;15.70;99.90;;;;;;5012842;28;20186;-81
2023/06/15 02:14:24;;;;;;;2.67;1.83;;;15.70;99.90;;;;;;5012009;28;20174;-80
2023/06/15 02:16:50;;;;;;;1.90;1.50;;;15.60;99.90;;;;;;5013074;28;20424;-80
2023/06/15 02:19:21;;;;;;;2.33;1.50;;;15.60;1.00;;;;;;5013207;28;20919;-81
2023/06/15 02:21:48;;;;;;;5.00;1.90;;;15.50;1.00;;;;;;5013093;28;20180;-81
2023/06/15 02:24:14;;;;;;;3.70;2.20;;;15.50;1.00;;;;;;5012946;28;20422;-81
2023/06/15 02:26:40;;;;;;;3.13;1.63;;;15.40;1.00;;;;;;5012606;28;20425;-80
2023/06/15 02:29:06;;;;;;;2.90;1.43;;;15.40;99.90;;;;;;5013051;28;20305;-81
2023/06/15 02:31:31;;;;;;;2.90;1.57;;;15.40;1.00;;;;;;5012982;28;20517;-81
2023/06/15 02:33:57;;;;;;;3.27;1.53;;;15.40;54.60;;;;;;5012991;28;20181;-81
2023/06/15 02:36:22;;;;;;;2.67;1.63;;;15.40;99.90;;;;;;5012903;28;20174;-81
2023/06/15 02:38:49;;;;;;;3.13;1.47;;;15.30;89.60;;;;;;5012938;28;20258;-81
2023/06/15 02:41:14;;;;;;;3.87;1.47;;;15.30;70.10;;;;;;5012942;28;20171;-82
2023/06/15 02:43:40;;;;;;;1.77;1.40;;;15.30;9.90;;;;;;5027686;28;20429;-81
2023/06/15 02:46:06;;;;;;;3.53;1.37;;;15.30;99.90;;;;;;5012712;28;20216;-83
2023/06/15 02:48:33;;;;;;;3.43;1.37;;;15.20;99.90;;;;;;5012879;28;20205;-83
2023/06/15 02:50:58;;;;;;;3.33;1.37;;;15.20;99.90;;;;;;5028023;28;20430;-83
2023/06/15 02:53:24;;;;;;;3.70;1.90;;;15.10;1.00;;;;;;5012838;28;20414;-84
2023/06/15 02:55:51;;;;;;;4.37;1.70;;;15.10;1.00;;;;;;5012757;28;20633;-83
2023/06/15 02:58:19;;;;;;;4.17;2.10;;;15.10;1.00;;;;;;5012412;28;20587;-83
2023/06/15 03:00:46;;;;;;;2.53;1.70;;;15.00;1.00;;;;;;5012711;28;20496;-84
2023/06/15 03:03:12;;;;;;;3.63;1.47;;;15.00;76.30;;;;;;5011497;28;20834;-83
2023/06/15 03:05:39;;;;;;;4.07;2.00;;;14.90;99.90;;;;;;5012401;28;20492;-85
2023/06/15 03:08:05;;;;;;;7.90;2.63;;;15.00;99.90;;;;;;5027859;28;20164;-84
2023/06/15 03:10:30;;;;;;;3.20;1.90;;;15.00;99.90;;;;;;5012733;28;20418;-79
2023/06/15 03:12:56;;;;;;;2.80;1.57;;;14.90;99.90;;;;;;5012351;28;20574;-83
2023/06/15 03:15:22;;;;;;;3.50;1.67;;;14.90;99.90;;;;;;5016094;28;20182;-84
2023/06/15 03:17:47;;;;;;;2.90;2.03;;;14.90;99.90;;;;;;5016082;28;20170;-83
2023/06/15 03:20:13;;;;;;;4.83;1.83;;;14.90;99.90;;;;;;5015610;28;20421;-81
2023/06/15 03:22:39;;;;;;;4.13;1.90;;;14.80;99.90;;;;;;5015903;28;20170;-81
2023/06/15 03:25:05;;;;;;;2.40;1.37;;;14.80;99.90;;;;;;5014624;28;20675;-80
2023/06/15 03:27:32;;;;;;;3.07;1.30;;;14.80;99.90;;;;;;5015627;28;20418;-83
2023/06/15 03:30:01;;;;;;;3.23;1.43;;;14.70;99.90;;;;;;5031091;28;20993;-81
2023/06/15 03:32:27;;;;;;;3.37;1.50;;;14.70;99.90;;;;;;5014712;28;20448;-82
2023/06/15 03:34:57;;;;;;;6.80;2.20;;;14.70;99.90;;;;;;5015951;28;20409;-82
2023/06/15 03:37:22;;;;;;;4.10;1.50;;;14.70;1.00;;;;;;5015689;28;20422;-83
2023/06/15 03:39:48;;;;;;;5.15;2.25;;;14.70;1.00;;;;;;5014718;28;20426;-83
2023/06/15 03:42:14;;;;;;;4.27;3.40;;;14.70;1.00;;;;;;5015219;28;20190;-83
2023/06/15 03:44:40;;;;;;;3.60;2.20;;;14.80;1.00;;;;;;5015570;28;20218;-84
2023/06/15 03:47:06;;;;;;;3.17;1.70;;;14.80;1.00;;;;;;5015574;28;20988;-85
2023/06/15 03:49:31;;;;;;;4.00;1.97;;;14.80;1.00;;;;;;5015453;28;20181;-85
2023/06/15 03:51:57;;;;;;;2.77;1.13;;;14.70;1.00;;;;;;5030770;28;20175;-81
2023/06/15 03:54:22;;;;;;;2.63;1.57;;;14.70;1.00;;;;;;5015380;28;20175;-84
2023/06/15 03:56:48;;;;;;;5.90;1.60;;;14.70;1.00;;;;;;5014973;28;20270;-84
2023/06/15 03:59:14;;;;;;;3.80;1.47;;;14.70;1.00;;;;;;5015340;28;20183;-83
2023/06/15 04:01:39;;;;;;;4.87;2.20;;;14.70;1.00;;;;;;5015238;28;20792;-83
2023/06/15 04:04:05;;;;;;;4.67;1.90;;;14.80;1.00;;;;;;5015258;28;20182;-81
2023/06/15 04:06:32;;;;;;;4.70;2.07;;;14.80;1.00;;;;;;5014646;28;20226;-83
2023/06/15 04:08:58;;;;;;;2.57;1.97;;;14.80;1.00;;;;;;5030359;28;20200;-81
2023/06/15 04:11:23;;;;;;;4.53;2.17;;;14.90;1.00;;;;;;5029914;28;20950;-82
2023/06/15 04:13:49;;;;;;;6.10;2.17;;;14.90;1.00;;;;;;5015023;28;20175;-82
2023/06/15 04:16:14;;;;;;;4.03;2.00;;;14.90;1.00;;;;;;5015031;28;20229;-81
2023/06/15 04:18:40;;;;;;;3.83;1.53;;;14.90;1.00;;;;;;5014963;28;20177;-81
2023/06/15 04:21:06;;;;;;;3.00;2.13;;;15.00;1.00;;;;;;5014863;28;20643;-84
2023/06/15 04:23:31;;;;;;;6.70;2.27;;;15.00;1.00;;;;;;5014360;28;20171;-80
2023/06/15 04:26:00;;;;;;;5.50;2.30;;;15.10;1.00;;;;;;5014092;28;20218;-81
2023/06/15 04:28:26;;;;;;;2.90;1.20;;;15.10;1.00;;;;;;5014444;28;20221;-82
2023/06/15 04:31:12;;;;;;;4.13;2.10;;;15.20;1.00;;;;;;5014674;28;20449;-83
2023/06/15 04:33:42;;;;;;;5.30;1.70;;;15.20;1.00;;;;;;5014591;28;20993;-81
2023/06/15 04:36:14;;;;;;;3.37;2.30;;;15.30;1.00;;;;;;5014604;28;20465;-80
2023/06/15 04:38:46;;;;;;;3.50;3.10;;;15.30;1.00;;;;;;5014619;28;20933;-80
2023/06/15 04:41:12;;;;;;;3.20;1.70;;;15.40;1.00;;;;;;5014231;28;20417;-81
2023/06/15 04:43:38;;;;;;;3.50;1.73;;;15.40;1.00;;;;;;5014578;28;20412;-81
2023/06/15 04:46:03;;;;;;;5.33;2.23;;;15.50;1.00;;;;;;5025997;28;20524;-81
2023/06/15 04:48:29;;;;;;;3.20;1.60;;;15.50;1.00;;;;;;5003098;28;20171;-82
2023/06/15 04:50:56;;;;;;;4.70;1.93;;;15.60;1.00;;;;;;5003986;28;20169;-83
2023/06/15 04:53:21;;;;;;;3.90;2.93;;;15.60;1.00;;;;;;5013222;28;20182;-79
2023/06/15 04:55:51;;;;;;;4.00;2.60;;;15.70;1.00;;;;;;5012849;28;20412;-84
2023/06/15 04:58:17;;;;;;;5.23;2.50;;;15.70;1.00;;;;;;5013410;28;20231;-81
2023/06/15 05:00:43;;;;;;;4.40;2.10;;;15.80;1.00;;;;;;5014336;28;20958;-81
2023/06/15 05:03:11;;;;;;;5.33;2.17;;;15.90;1.00;;;;;;5013482;28;20418;-78
2023/06/15 05:05:37;;;;;;;4.30;2.97;;;16.00;1.00;;;;;;5013176;28;20508;-82
2023/06/15 05:08:02;;;;;;;6.67;2.90;;;16.10;1.00;;;;;;5014028;28;20445;-79
2023/06/15 05:10:28;;;;;;;8.57;2.13;;;16.20;1.00;;;;;;5014116;28;20175;-79
2023/06/15 05:12:54;;;;;;;7.43;2.70;;;16.30;1.00;;;;;;5013597;28;20542;-79
2023/06/15 05:15:20;;;;;;;7.80;2.60;;;16.40;1.00;;;;;;5013833;28;20209;-82
2023/06/15 05:17:45;;;;;;;6.80;1.83;;;16.50;1.00;;;;;;5013740;28;20533;-84
2023/06/15 05:20:11;;;;;;;6.63;2.30;;;16.60;1.00;;;;;;5013846;28;20171;-81
2023/06/15 05:22:37;;;;;;;4.13;2.00;;;16.70;99.90;;;;;;5013728;28;20207;-81
2023/06/15 05:25:06;;;;;;;4.80;2.47;;;16.90;99.90;;;;;;5013661;28;20838;-84
2023/06/15 05:27:35;;;;;;;6.30;2.40;;;17.00;99.90;;;;;;5013266;28;20176;-83
2023/06/15 05:30:01;;;;;;;3.50;2.10;;;17.10;99.90;;;;;;5013554;28;20502;-82
2023/06/15 05:32:26;;;;;;;4.30;1.63;;;17.20;58.40;;;;;;5013448;28;20434;-81
2023/06/15 05:34:52;;;;;;;5.23;1.90;;;17.40;1.00;;;;;;5013385;28;20749;-82
2023/06/15 05:37:17;;;;;;;2.90;1.50;;;17.70;1.00;;;;;;5013441;28;20193;-81
2023/06/15 05:39:44;;;;;;;2.90;1.60;;;17.90;1.00;;;;;;5028685;28;20645;-81
2023/06/15 05:42:09;;;;;;;6.43;1.37;;;18.10;1.00;;;;;;5012997;28;20218;-81
2023/06/15 05:44:35;;;;;;;8.53;1.93;;;18.30;1.00;;;;;;5013286;28;20492;-81
2023/06/15 05:47:00;;;;;;;4.20;2.40;;;18.60;1.00;;;;;;5013397;28;20175;-80
2023/06/15 05:49:26;;;;;;;2.47;1.47;;;18.70;99.90;;;;;;5028683;28;20637;-81
2023/06/15 05:51:52;;;;;;;4.47;1.93;;;18.90;1.00;;;;;;5028629;28;20178;-86
2023/06/15 05:54:18;;;;;;;3.43;2.03;;;19.00;99.90;;;;;;5013409;28;20443;-82
2023/06/15 05:56:44;;;;;;;4.00;2.90;;;19.00;1.00;;;;;;5012898;28;20166;-82
2023/06/15 05:59:09;;;;;;;5.40;1.87;;;19.20;61.10;;;;;;5011732;28;20422;-81
2023/06/15 06:01:35;;;;;;;4.20;2.20;;;19.30;1.00;;;;;;5013212;28;20186;-81
2023/06/15 06:04:00;;;;;;;3.10;2.00;;;19.50;1.00;;;;;;5013122;28;20541;-84
2023/06/15 06:06:25;;;;;;;3.53;1.87;;;19.50;99.90;;;;;;5012979;28;20279;-83
2023/06/15 06:08:51;;;;;;;6.80;2.17;;;19.60;1.00;;;;;;5004444;28;20181;-84
2023/06/15 06:11:16;;;;;;;5.00;1.97;;;19.60;1.00;;;;;;5002630;28;20201;-82
2023/06/15 06:13:42;;;;;;;2.40;1.37;;;19.70;1.00;;;;;;4998909;28;20636;-85
2023/06/15 06:16:07;;;;;;;6.77;2.20;;;19.90;1.00;;;;;;4993520;28;20647;-82
2023/06/15 06:18:33;;;;;;;1.97;1.30;;;20.10;1.00;;;;;;4993525;28;20210;-79
2023/06/15 06:20:58;;;;;;;6.47;1.50;;;20.30;99.90;;;;;;4993403;28;20551;-79
2023/06/15 06:23:24;;;;;;;5.83;1.93;;;20.40;99.90;;;;;;4993447;28;20177;-82
2023/06/15 06:25:49;;;;;;;3.97;1.10;;;20.50;99.90;;;;;;4993190;28;20676;-79
2023/06/15 06:28:15;;;;;;;2.30;1.17;;;20.60;99.90;;;;;;4993314;28;20206;-79
2023/06/15 06:30:40;;;;;;;2.30;1.40;;;20.70;99.90;;;;;;4993428;28;20174;-80
2023/06/15 06:33:06;;;;;;;3.87;1.63;;;20.90;68.20;;;;;;4993339;28;20606;-79
2023/06/15 06:35:31;;;;;;;4.40;1.20;;;21.10;47.40;;;;;;4993243;28;20179;-80
2023/06/15 06:37:57;;;;;;;3.03;1.23;;;21.40;17.00;;;;;;4993365;28;20178;-78
2023/06/15 06:40:22;;;;;;;5.23;1.50;;;21.70;1.00;;;;;;4993390;28;20181;-79
2023/06/15 06:42:57;;;;;;;3.37;1.10;;;21.90;1.00;;;;;;4992909;28;20305;-79
2023/06/15 06:45:22;;;;;;;2.73;1.23;;;22.20;1.00;;;;;;4992016;28;20243;-82
2023/06/15 06:47:51;;;;;;;5.07;2.37;;;22.50;1.00;;;;;;4994489;28;20818;-79
2023/06/15 06:50:16;;;;;;;4.00;1.27;;;22.70;1.00;;;;;;4997059;28;20245;-80
2023/06/15 06:52:42;;;;;;;3.83;1.53;;;23.00;1.00;;;;;;4997026;28;20414;-81
2023/06/15 06:55:08;;;;;;;1.77;0.77;;;23.20;1.00;;;;;;4997007;28;20174;-82
2023/06/15 06:57:34;;;;;;;2.03;1.27;;;23.30;1.00;;;;;;4996536;28;20219;-81
2023/06/15 07:00:00;;;;;;;2.93;1.70;;;23.30;1.00;;;;;;4996846;28;20424;-80
2023/06/15 07:02:25;;;;;;;5.03;1.53;;;23.40;1.00;;;;;;4996845;28;20921;-81
2023/06/15 07:04:51;;;;;;;3.93;1.30;;;23.50;1.00;;;;;;4996618;28;20407;-81
2023/06/15 07:07:16;;;;;;;3.70;1.37;;;23.70;1.00;;;;;;4996609;28;20565;-83
2023/06/15 07:09:42;;;;;;;3.57;1.70;;;24.10;1.00;;;;;;4996669;28;20178;-85
2023/06/15 07:12:08;;;;;;;3.90;1.03;;;24.20;1.00;;;;;;4996372;28;20245;-83
2023/06/15 07:14:34;;;;;;;1.93;1.03;;;24.40;1.00;;;;;;5011670;28;20558;-82
2023/06/15 07:16:59;;;;;;;5.30;1.43;;;24.60;1.00;;;;;;4996599;28;20431;-79
2023/06/15 07:19:25;;;;;;;3.93;1.60;;;25.40;1.00;;;;;;4996501;28;20175;-80
2023/06/15 07:21:52;;;;;;;2.60;1.63;;;26.00;1.00;;;;;;4996733;28;20234;-80
2023/06/15 07:24:17;;;;;;;4.53;1.30;;;26.20;1.00;;;;;;4996409;28;20426;-81
2023/06/15 07:26:43;;;;;;;3.37;1.30;;;26.50;1.00;;;;;;4996013;28;20414;-84
2023/06/15 07:29:08;;;;;;;2.13;1.33;;;26.80;1.00;;;;;;4996359;28;20175;-82
2023/06/15 07:31:34;;;;;;;4.10;1.70;;;27.40;1.00;;;;;;4996242;28;20172;-83
2023/06/15 07:34:01;;;;;;;2.77;1.23;;;28.10;1.00;;;;;;4996146;28;20172;-82
2023/06/15 07:36:27;;;;;;;1.73;1.00;;;28.80;1.00;;;;;;4996144;28;20254;-81
2023/06/15 07:38:53;;;;;;;2.80;1.60;;;29.50;1.00;;;;;;4996141;28;20451;-82
2023/06/15 07:41:19;;;;;;;3.30;1.40;;;29.90;1.00;;;;;;4995819;28;20175;-85
2023/06/15 07:43:45;;;;;;;3.10;1.20;;;30.40;1.00;;;;;;4996044;28;20751;-82
2023/06/15 07:46:10;;;;;;;2.00;1.50;;;30.80;1.00;;;;;;4994728;28;20261;-84
2023/06/15 07:48:36;;;;;;;4.40;1.20;;;31.20;1.00;;;;;;4995973;28;20542;-82
2023/06/15 07:51:01;;;;;;;3.10;1.10;;;31.90;1.00;;;;;;5010836;28;20259;-84
2023/06/15 07:53:27;;;;;;;3.90;1.10;;;31.20;1.00;;;;;;4995849;28;20229;-83
2023/06/15 07:55:52;;;;;;;3.73;1.70;;;30.80;1.00;;;;;;4994262;28;20204;-85
2023/06/15 07:58:18;;;;;;;1.67;1.17;;;30.70;1.00;;;;;;4995646;28;20198;-85
2023/06/15 08:00:43;;;;;;;2.53;1.50;;;30.30;1.00;;;;;;4995830;28;20172;-82
2023/06/15 08:03:08;;;;;;;2.80;1.10;;;30.00;1.00;;;;;;4995714;28;20168;-82
2023/06/15 08:05:34;;;;;;;1.20;0.77;;;29.80;1.00;;;;;;4995540;28;20314;-81
2023/06/15 08:07:59;;;;;;;4.73;1.30;;;29.70;1.00;;;;;;4995666;28;20172;-81
2023/06/15 08:10:25;;;;;;;1.70;1.20;;;29.40;1.00;;;;;;4995506;28;20199;-82
2023/06/15 08:12:50;;;;;;;2.93;2.03;;;29.00;1.00;;;;;;4995828;28;20168;-83
2023/06/15 08:15:16;;;;;;;3.80;1.77;;;29.00;1.00;;;;;;4994343;28;20262;-81
2023/06/15 08:17:41;;;;;;;6.27;1.97;;;29.10;1.00;;;;;;4995413;28;20199;-84
2023/06/15 08:20:09;;;;;;;4.00;1.60;;;29.20;1.00;;;;;;4995448;28;20180;-85
2023/06/15 08:22:35;;;;;;;3.20;1.37;;;29.10;1.00;;;;;;4995321;28;20168;-82
2023/06/15 08:25:00;;;;;;;5.60;2.00;;;28.90;1.00;;;;;;4995237;28;21041;-86
2023/06/15 08:27:26;;;;;;;1.63;1.43;;;28.80;1.00;;;;;;4994995;28;20187;-82
2023/06/15 08:29:51;;;;;;;2.90;1.10;;;28.90;1.00;;;;;;4995299;28;20640;-83
2023/06/15 08:32:17;;;;;;;3.17;1.47;;;28.60;1.00;;;;;;4995112;28;20182;-82
2023/06/15 08:34:43;;;;;;;2.07;1.03;;;28.70;1.00;;;;;;4995129;28;20172;-81
2023/06/15 08:37:11;;;;;;;3.80;1.97;;;28.90;1.00;;;;;;4993787;28;20502;-82
2023/06/15 08:39:37;;;;;;;3.00;1.30;;;29.10;1.00;;;;;;4995032;28;20426;-81
2023/06/15 08:42:03;;;;;;;7.33;2.00;;;29.10;1.00;;;;;;4994640;28;20462;-81
2023/06/15 08:44:32;;;;;;;4.13;1.70;;;29.10;1.00;;;;;;4994845;28;20423;-83
2023/06/15 08:47:00;;;;;;;4.30;1.60;;;28.80;1.00;;;;;;4994843;28;20179;-84
2023/06/15 08:49:26;;;;;;;4.77;1.60;;;28.90;1.00;;;;;;4994822;28;20419;-82
2023/06/15 08:51:54;;;;;;;3.50;1.77;;;28.90;1.00;;;;;;4993796;28;20449;-83
2023/06/15 08:54:21;;;;;;;3.20;1.90;;;28.70;1.00;;;;;;4994715;28;20577;-82
2023/06/15 08:56:47;;;;;;;3.60;1.67;;;28.60;1.00;;;;;;4994382;28;20449;-85
2023/06/15 08:59:16;;;;;;;4.67;1.50;;;28.70;1.00;;;;;;4994694;28;20423;-81
2023/06/15 09:01:43;;;;;;;3.13;1.57;;;28.80;1.00;;;;;;4994612;28;20423;-81
2023/06/15 09:04:09;;;;;;;4.87;1.80;;;28.80;1.00;;;;;;4994599;28;20422;-83
2023/06/15 09:06:34;;;;;;;3.00;1.40;;;28.70;1.00;;;;;;4994227;28;20544;-80
2023/06/15 09:09:00;;;;;;;2.37;1.60;;;28.70;1.00;;;;;;4993373;28;20171;-83
2023/06/15 09:11:26;;;;;;;1.53;1.03;;;28.90;1.00;;;;;;4992299;28;20179;-82
2023/06/15 09:13:54;;;;;;;2.60;1.70;;;29.00;1.00;;;;;;4994399;28;20230;-84
2023/06/15 09:16:19;;;;;;;2.67;1.63;;;29.10;1.00;;;;;;4994422;28;20433;-81
2023/06/15 09:18:51;;;;;;;2.33;1.50;;;29.00;1.00;;;;;;5007824;28;20426;-81
2023/06/15 09:21:20;;;;;;;2.70;1.63;;;29.00;1.00;;;;;;5013914;28;20506;-86
2023/06/15 09:23:47;;;;;;;4.23;1.70;;;28.80;1.00;;;;;;5013861;28;20421;-81
2023/06/15 09:26:23;;;;;;;3.50;1.40;;;28.70;1.00;;;;;;5013302;28;20476;-81
2023/06/15 09:28:49;;;;;;;3.73;1.40;;;28.70;1.00;;;;;;5013768;28;20412;-82
2023/06/15 09:31:31;;;;;;;3.33;1.47;;;28.80;1.00;;;;;;5013620;28;20430;-82
2023/06/15 09:34:11;;;;;;;3.17;2.37;;;28.90;1.00;;;;;;5013654;28;20436;-82
2023/06/15 09:36:44;;;;;;;3.20;1.37;;;28.70;1.00;;;;;;5013707;28;20783;-83
2023/06/15 09:39:12;;;;;;;5.80;2.00;;;28.30;1.00;;;;;;5013594;28;20414;-82
2023/06/15 09:42:08;;;;;;;2.50;1.40;;;28.00;1.00;;;;;;5013233;28;20417;-83
2023/06/15 09:44:38;;;;;;;4.20;2.20;;;27.70;1.00;;;;;;5013483;28;20418;-82
2023/06/15 09:47:15;;;;;;;3.53;1.47;;;27.30;1.00;;;;;;5012274;28;20989;-83
2023/06/15 09:49:44;;;;;;;3.30;1.20;;;27.10;1.00;;;;;;5013555;28;20508;-81
2023/06/15 09:52:12;;;;;;;2.60;1.67;;;27.10;1.00;;;;;;5013404;28;20426;-82
2023/06/15 09:54:42;;;;;;;1.93;1.17;;;27.20;1.00;;;;;;5013169;28;20410;-81
2023/06/15 09:57:08;;;;;;;2.43;1.13;;;27.20;1.00;;;;;;5013090;28;20414;-84
2023/06/15 09:59:33;;;;;;;2.60;1.13;;;27.40;1.00;;;;;;5028420;28;20897;-84
2023/06/15 10:02:00;;;;;;;2.53;1.60;;;27.60;1.00;;;;;;5013327;28;20521;-83
2023/06/15 10:04:30;;;;;;;3.87;1.43;;;28.00;1.00;;;;;;5013180;28;20175;-81
2023/06/15 10:07:00;;;;;;;4.83;1.33;;;28.30;1.00;;;;;;5012969;28;21000;-82
2023/06/15 10:09:28;;;;;;;2.07;1.47;;;28.40;1.00;;;;;;5013307;28;20516;-85
2023/06/15 10:11:58;;;;;;;2.17;1.40;;;28.30;1.00;;;;;;5012774;28;20515;-85
2023/06/15 10:14:31;;;;;;;2.60;1.50;;;28.60;1.00;;;;;;5013264;28;20441;-81
2023/06/15 10:17:02;;;;;;;2.40;1.37;;;29.10;1.00;;;;;;5013236;28;20410;-85
2023/06/15 10:19:31;;;;;;;3.27;1.17;;;29.50;1.00;;;;;;5017444;28;20422;-81
2023/06/15 10:21:57;;;;;;;2.80;1.30;;;30.00;1.00;;;;;;5013188;28;20906;-85
2023/06/15 10:24:25;;;;;;;2.57;1.53;;;30.70;1.00;;;;;;5017167;28;20410;-81
2023/06/15 10:26:50;;;;;;;2.57;1.23;;;31.20;1.00;;;;;;5016810;28;20424;-81
2023/06/15 10:29:36;;;;;;;6.53;1.80;;;31.70;1.00;;;;;;5017038;28;20484;-83
2023/06/15 10:32:20;;;;;;;2.20;1.57;;;32.10;1.00;;;;;;5032620;28;20526;-85
2023/06/15 10:34:58;;;;;;;1.70;1.60;;;32.30;1.00;;;;;;5017005;28;20420;-81
2023/06/15 10:37:35;;;;;;;2.50;1.10;;;32.10;1.00;;;;;;5016865;28;20903;-82
2023/06/15 10:40:10;;;;;;;3.00;2.03;;;31.30;1.00;;;;;;5016959;28;20413;-85
2023/06/15 10:42:48;;;;;;;2.40;1.60;;;31.00;1.00;;;;;;5016798;28;20456;-82
2023/06/15 10:45:28;;;;;;;3.73;1.63;;;30.70;1.00;;;;;;5016613;28;20469;-81
2023/06/15 10:47:55;;;;;;;3.60;1.10;;;30.20;1.00;;;;;;5016729;28;20417;-81
2023/06/15 10:50:24;;;;;;;3.00;1.70;;;29.90;1.00;;;;;;5016508;28;20763;-81
2023/06/15 10:52:51;;;;;;;3.43;1.37;;;29.60;1.00;;;;;;5016497;28;20468;-81
2023/06/15 10:55:26;;;;;;;2.23;0.90;;;29.30;1.00;;;;;;5016122;28;20437;-83
2023/06/15 10:58:17;;;;;;;4.17;1.30;;;29.30;1.00;;;;;;5016650;28;20413;-85
2023/06/15 11:00:44;;;;;;;2.63;1.93;;;29.60;1.00;;;;;;5016400;28;20418;-82
2023/06/15 11:03:24;;;;;;;1.50;0.83;;;29.80;1.00;;;;;;5016234;28;20910;-81
2023/06/15 11:06:01;;;;;;;2.00;1.40;;;30.10;1.00;;;;;;5010123;28;20467;-82
2023/06/15 11:08:29;;;;;;;7.10;1.70;;;29.90;1.00;;;;;;5003107;28;20445;-82
2023/06/15 11:10:54;;;;;;;6.00;1.70;;;29.90;1.00;;;;;;5011189;28;20495;-84
2023/06/15 11:13:24;;;;;;;3.50;1.73;;;29.90;1.00;;;;;;5022788;28;20957;-84
2023/06/15 11:16:07;;;;;;;2.70;1.47;;;30.30;1.00;;;;;;4997552;28;20479;-84
2023/06/15 11:18:33;;;;;;;6.10;2.47;;;30.50;1.00;;;;;;4997031;28;20417;-82
2023/06/15 11:20:59;;;;;;;1.83;1.20;;;30.70;1.00;;;;;;5017248;28;20434;-82
2023/06/15 11:23:29;;;;;;;3.57;1.50;;;30.70;1.00;;;;;;4997900;28;20175;-88
2023/06/15 11:25:55;;;;;;;2.67;1.63;;;30.70;1.00;;;;;;5004378;28;20830;-89
2023/06/15 11:28:24;;;;;;;3.00;1.63;;;30.40;1.00;;;;;;4998184;28;20553;-80
2023/06/15 11:30:53;;;;;;;4.10;1.23;;;30.20;1.00;;;;;;4998564;28;20418;-84
2023/06/15 11:33:36;;;;;;;3.33;1.93;;;30.10;1.00;;;;;;4997845;28;20422;-81
2023/06/15 11:36:03;;;;;;;2.73;1.70;;;29.60;1.00;;;;;;4999187;28;20403;-81
2023/06/15 11:38:30;;;;;;;2.77;1.47;;;29.50;1.00;;;;;;4997901;28;20431;-84
2023/06/15 11:41:04;;;;;;;7.20;2.13;;;29.90;1.00;;;;;;4997846;28;20465;-82
2023/06/15 11:43:40;;;;;;;3.00;1.70;;;30.20;1.00;;;;;;4998362;28;20489;-80
2023/06/15 11:46:11;;;;;;;7.87;1.63;;;30.10;1.00;;;;;;5004479;28;20477;-84
2023/06/15 11:48:36;;;;;;;4.97;2.33;;;30.00;1.00;;;;;;4996040;28;20450;-81
2023/06/15 11:51:06;;;;;;;3.70;1.43;;;29.90;1.00;;;;;;5007267;28;20458;-80
2023/06/15 11:53:33;;;;;;;2.40;1.17;;;29.70;1.00;;;;;;5015066;28;20571;-80
2023/06/15 11:56:00;;;;;;;4.20;0.80;;;29.70;1.00;;;;;;5013523;28;20449;-80
2023/06/15 11:58:25;;;;;;;2.87;1.60;;;29.90;1.00;;;;;;5015492;28;20449;-79
2023/06/15 12:00:51;;;;;;;4.23;2.10;;;30.40;1.00;;;;;;5030754;28;20461;-86
2023/06/15 12:03:18;;;;;;;1.97;1.23;;;30.90;1.00;;;;;;5015459;28;20530;-85
2023/06/15 12:05:44;;;;;;;2.37;1.60;;;30.80;1.00;;;;;;5013763;28;20516;-81
2023/06/15 12:08:11;;;;;;;1.93;1.63;;;31.20;1.00;;;;;;5015368;28;20419;-89
2023/06/15 12:10:37;;;;;;;2.70;1.77;;;31.50;1.00;;;;;;5014929;28;20538;-88
2023/06/15 12:13:03;;;;;;;3.57;1.80;;;31.60;1.00;;;;;;5015494;28;20410;-80
2023/06/15 12:15:29;;;;;;;4.33;2.10;;;31.50;1.00;;;;;;5015548;28;20501;-81
2023/06/15 12:17:59;;;;;;;3.10;1.83;;;31.20;1.00;;;;;;5030158;28;20874;-81
2023/06/15 12:20:28;;;;;;;3.13;2.80;;;30.90;1.00;;;;;;5012077;28;20163;-87
2023/06/15 12:22:53;;;;;;;2.43;1.93;;;31.00;1.00;;;;;;5004594;28;20406;-82
2023/06/15 12:25:38;;;;;;;4.40;1.73;;;30.60;1.00;;;;;;5004046;28;20501;-87
2023/06/15 12:28:21;;;;;;;3.17;2.47;;;30.50;1.00;;;;;;5004935;28;20545;-80
2023/06/15 12:30:48;;;;;;;3.37;1.83;;;30.40;1.00;;;;;;5004604;28;20430;-83
2023/06/15 12:33:23;;;;;;;3.13;2.20;;;30.60;1.00;;;;;;5002214;28;20434;-81
2023/06/15 12:35:50;;;;;;;3.53;1.67;;;30.40;1.00;;;;;;5005774;28;20419;-81
2023/06/15 12:38:16;;;;;;;3.67;2.10;;;30.40;1.00;;;;;;5004137;28;20600;-81
2023/06/15 12:40:43;;;;;;;6.30;2.07;;;30.20;1.00;;;;;;5005100;28;20513;-82
2023/06/15 12:43:09;;;;;;;3.53;2.37;;;29.90;1.00;;;;;;5003674;28;20578;-85
2023/06/15 12:45:35;;;;;;;4.03;2.40;;;29.80;1.00;;;;;;5003881;28;20478;-81
2023/06/15 12:48:01;;;;;;;2.83;1.87;;;30.00;1.00;;;;;;5002971;28;20449;-82
2023/06/15 12:50:30;;;;;;;3.10;2.60;;;30.20;1.00;;;;;;5005331;28;20433;-81
2023/06/15 12:52:57;;;;;;;3.43;1.70;;;30.20;1.00;;;;;;5012298;28;20866;-79
2023/06/15 12:55:23;;;;;;;2.10;1.60;;;29.90;1.00;;;;;;5013958;28;20949;-89
2023/06/15 12:57:49;;;;;;;2.90;1.97;;;29.80;1.00;;;;;;5008011;28;20406;-80